Time;durP1;ratioP1;P1;durP2;ratioP2;P2;SDS_P1;SDS_P2;PMS_P1;PMS_P2;Temp;Humidity;BMP_temperature;BMP_pressure;BME280_temperature;BME280_humidity;BME280_pressure;Samples;Min_cycle;Max_cycle;Signal;HPM_P1;HPM_P2
2021/05/10 00:02:00;;;;;;;15.20;9.13;;;6.70;68.00;;;;;;6264900;22;20015;-94
2021/05/10 00:04:26;;;;;;;15.27;10.57;;;6.70;68.10;;;;;;6265193;22;19996;-93
2021/05/10 00:06:51;;;;;;;19.05;11.65;;;6.70;68.20;;;;;;6265064;22;20004;-94
2021/05/10 00:09:17;;;;;;;31.30;18.95;;;6.70;68.40;;;;;;6251950;22;19996;-94
2021/05/10 00:11:43;;;;;;;24.75;15.02;;;6.70;68.50;;;;;;6251956;22;20435;-95
2021/05/10 00:14:09;;;;;;;24.42;14.70;;;6.70;68.50;;;;;;6250699;22;20420;-94
2021/05/10 00:16:34;;;;;;;22.20;14.80;;;6.70;68.90;;;;;;6248241;22;20343;-94
2021/05/10 00:19:01;;;;;;;19.90;12.55;;;6.70;69.00;;;;;;6248889;22;19995;-95
2021/05/10 00:21:27;;;;;;;22.30;13.07;;;6.60;69.10;;;;;;6246955;22;20050;-95
2021/05/10 00:23:53;;;;;;;28.48;17.60;;;6.60;69.10;;;;;;6248787;22;20004;-94
2021/05/10 00:26:19;;;;;;;27.33;16.48;;;6.60;69.10;;;;;;6246905;22;19996;-94
2021/05/10 00:28:45;;;;;;;32.88;19.50;;;6.60;69.20;;;;;;6247663;22;19996;-94
2021/05/10 00:31:11;;;;;;;34.53;21.50;;;6.60;69.20;;;;;;6246953;22;20026;-94
2021/05/10 00:33:36;;;;;;;37.28;21.02;;;6.60;69.30;;;;;;6247273;22;20011;-94
2021/05/10 00:36:02;;;;;;;32.33;19.95;;;6.60;69.40;;;;;;6247219;23;20023;-94
2021/05/10 00:38:28;;;;;;;29.00;16.65;;;6.60;69.40;;;;;;6248191;22;20000;-94
2021/05/10 00:40:53;;;;;;;28.80;17.67;;;6.50;69.50;;;;;;6248490;22;19996;-94
2021/05/10 00:43:19;;;;;;;25.13;15.73;;;6.50;69.70;;;;;;6256862;22;20004;-94
2021/05/10 00:45:47;;;;;;;24.05;15.57;;;6.50;70.00;;;;;;6259882;22;20003;-93
2021/05/10 00:48:12;;;;;;;25.63;15.00;;;6.50;69.90;;;;;;6258416;22;20004;-94
2021/05/10 00:50:38;;;;;;;20.83;13.55;;;6.50;69.90;;;;;;6249374;22;19997;-94
2021/05/10 00:53:04;;;;;;;21.02;13.27;;;6.50;70.10;;;;;;6248695;22;20002;-94
2021/05/10 00:55:31;;;;;;;20.08;12.52;;;6.40;70.20;;;;;;6247510;22;20024;-94
2021/05/10 00:58:03;;;;;;;21.35;13.40;;;6.40;70.20;;;;;;6247324;22;20019;-94
2021/05/10 01:00:36;;;;;;;20.45;13.05;;;6.40;70.20;;;;;;6249819;22;20012;-95
2021/05/10 01:03:02;;;;;;;18.23;11.80;;;6.40;70.40;;;;;;6273477;22;20031;-92
2021/05/10 01:05:28;;;;;;;20.45;12.82;;;6.30;70.30;;;;;;6274036;22;19997;-93
2021/05/10 01:07:54;;;;;;;16.65;12.02;;;6.30;70.50;;;;;;6274500;22;19984;-93
2021/05/10 01:10:21;;;;;;;18.77;12.55;;;6.30;70.50;;;;;;6273295;22;20034;-93
2021/05/10 01:12:48;;;;;;;21.15;12.95;;;6.20;70.70;;;;;;6255383;22;20015;-94
2021/05/10 01:15:17;;;;;;;18.08;11.50;;;6.20;70.90;;;;;;6254686;22;20130;-94
2021/05/10 01:17:44;;;;;;;17.27;11.75;;;6.20;71.10;;;;;;6255217;22;20011;-93
2021/05/10 01:20:12;;;;;;;15.85;11.18;;;6.10;71.20;;;;;;6255628;22;19992;-94
2021/05/10 01:22:47;;;;;;;18.52;11.75;;;6.10;71.30;;;;;;6246721;22;20083;-94
2021/05/10 01:25:14;;;;;;;;;;;6.10;71.20;;;;;;6247268;22;20004;-93
2021/05/10 01:27:41;;;;;;;18.70;11.65;;;6.00;71.90;;;;;;6246071;22;19978;-94
2021/05/10 01:30:30;;;;;;;18.60;12.65;;;6.00;71.00;;;;;;6246935;23;20280;-94
2021/05/10 01:32:57;;;;;;;19.85;11.45;;;6.00;71.20;;;;;;6271946;22;20000;-94
2021/05/10 01:35:26;;;;;;;17.77;10.43;;;5.90;71.40;;;;;;6246822;22;20000;-94
2021/05/10 01:37:52;;;;;;;17.92;10.73;;;5.90;71.60;;;;;;6247249;22;19992;-94
2021/05/10 01:40:18;;;;;;;18.98;11.10;;;5.80;71.70;;;;;;6247261;22;20348;-94
2021/05/10 01:42:44;;;;;;;17.13;11.85;;;5.90;72.10;;;;;;6245899;22;20146;-94
2021/05/10 01:45:11;;;;;;;16.70;11.30;;;5.80;72.10;;;;;;6246512;22;20031;-94
2021/05/10 01:47:37;;;;;;;15.63;10.25;;;5.80;72.00;;;;;;6246506;23;20003;-94
2021/05/10 01:50:13;;;;;;;16.67;11.40;;;5.80;72.10;;;;;;6247075;22;20426;-95
2021/05/10 01:52:39;;;;;;;16.17;10.98;;;5.80;72.30;;;;;;6246028;23;20501;-94
2021/05/10 01:55:05;;;;;;;20.10;11.35;;;5.80;72.20;;;;;;6247685;22;19996;-94
2021/05/10 01:57:31;;;;;;;15.23;10.20;;;5.80;72.30;;;;;;6246741;22;19998;-94
2021/05/10 01:59:57;;;;;;;19.52;10.48;;;5.80;72.40;;;;;;6246110;22;20022;-94
2021/05/10 02:02:23;;;;;;;16.85;10.25;;;5.80;72.50;;;;;;6247913;22;20000;-94
2021/05/10 02:05:12;;;;;;;17.13;10.55;;;5.80;72.60;;;;;;6247039;22;20079;-94
2021/05/10 02:07:40;;;;;;;19.05;11.07;;;5.80;72.70;;;;;;6246377;23;19997;-94
2021/05/10 02:10:17;;;;;;;18.30;10.95;;;5.70;72.50;;;;;;6246320;22;20004;-94
2021/05/10 02:13:01;;;;;;;16.48;9.93;;;5.70;72.60;;;;;;6249087;23;20295;-94
2021/05/10 02:15:29;;;;;;;15.93;9.73;;;5.70;72.80;;;;;;6248871;23;20286;-94
2021/05/10 02:17:55;;;;;;;17.45;10.13;;;5.70;72.90;;;;;;6248233;22;20000;-94
2021/05/10 02:20:23;;;;;;;17.08;9.85;;;5.70;73.10;;;;;;6249005;22;20007;-94
2021/05/10 02:22:50;;;;;;;13.75;9.15;;;5.70;73.10;;;;;;6248820;22;20389;-95
2021/05/10 02:25:24;;;;;;;15.15;10.68;;;5.80;73.30;;;;;;6248384;22;20079;-94
2021/05/10 02:27:51;;;;;;;19.27;11.55;;;5.80;73.30;;;;;;6248310;23;20004;-94
2021/05/10 02:30:19;;;;;;;16.10;10.73;;;5.70;73.20;;;;;;6248194;22;20079;-94
2021/05/10 02:32:45;;;;;;;19.25;11.25;;;5.70;73.30;;;;;;6248126;22;20032;-94
2021/05/10 02:35:11;;;;;;;17.45;10.52;;;5.70;73.30;;;;;;6247845;22;20058;-94
2021/05/10 02:37:37;;;;;;;17.33;11.25;;;5.70;73.40;;;;;;6248078;22;20006;-94
2021/05/10 02:40:05;;;;;;;18.33;10.48;;;5.70;73.50;;;;;;6248457;22;20071;-94
2021/05/10 02:42:31;;;;;;;17.95;11.25;;;5.70;73.50;;;;;;6248062;22;20019;-94
2021/05/10 02:44:57;;;;;;;16.30;10.85;;;5.80;73.80;;;;;;6248401;22;20000;-94
2021/05/10 02:47:23;;;;;;;18.50;10.52;;;5.80;73.80;;;;;;6248233;22;20000;-94
2021/05/10 02:49:48;;;;;;;17.65;9.65;;;5.80;73.80;;;;;;6267600;22;20027;-93
2021/05/10 02:52:14;;;;;;;17.00;10.85;;;5.90;73.80;;;;;;6275613;22;20056;-93
2021/05/10 02:54:40;;;;;;;17.52;10.82;;;5.90;73.80;;;;;;6274684;22;20056;-94
2021/05/10 02:57:06;;;;;;;15.20;10.23;;;5.90;73.90;;;;;;6275111;22;19999;-94
2021/05/10 02:59:32;;;;;;;17.13;10.77;;;6.00;74.00;;;;;;6264293;22;20023;-94
2021/05/10 03:01:57;;;;;;;15.45;9.13;;;6.00;74.10;;;;;;6256491;23;20066;-94
2021/05/10 03:04:23;;;;;;;11.43;8.65;;;6.10;74.10;;;;;;6258991;22;20055;-94
2021/05/10 03:06:49;;;;;;;18.38;9.95;;;6.10;73.90;;;;;;6255751;22;19999;-94
2021/05/10 03:09:14;;;;;;;15.38;9.40;;;6.20;73.90;;;;;;6250780;22;19996;-93
2021/05/10 03:11:40;;;;;;;16.63;9.52;;;6.30;73.90;;;;;;6250810;22;19996;-94
2021/05/10 03:14:06;;;;;;;14.48;10.20;;;6.40;73.80;;;;;;6249927;22;20404;-93
2021/05/10 03:16:31;;;;;;;15.98;9.35;;;6.40;73.80;;;;;;6249323;22;20000;-94
2021/05/10 03:18:57;;;;;;;17.70;11.07;;;6.50;73.90;;;;;;6251211;22;20000;-93
2021/05/10 03:21:23;;;;;;;16.80;10.13;;;6.60;73.80;;;;;;6250426;22;19992;-93
2021/05/10 03:23:48;;;;;;;14.38;9.20;;;6.70;73.70;;;;;;6250686;22;20007;-93
2021/05/10 03:26:14;;;;;;;18.52;11.20;;;6.70;73.50;;;;;;6252801;22;19996;-93
2021/05/10 03:28:40;;;;;;;16.42;9.52;;;6.80;73.50;;;;;;6253622;22;19996;-93
2021/05/10 03:31:06;;;;;;;17.90;10.75;;;6.90;73.40;;;;;;6253183;22;20399;-94
2021/05/10 03:33:31;;;;;;;17.98;10.52;;;7.00;73.20;;;;;;6251067;22;20095;-94
2021/05/10 03:35:57;;;;;;;16.17;9.88;;;7.10;73.20;;;;;;6248865;22;20058;-95
2021/05/10 03:38:23;;;;;;;13.00;9.57;;;7.30;73.10;;;;;;6247372;22;20000;-95
2021/05/10 03:40:48;;;;;;;14.55;10.60;;;7.40;73.00;;;;;;6248587;22;20023;-94
2021/05/10 03:43:14;;;;;;;14.27;9.70;;;7.50;72.80;;;;;;6247478;22;20020;-95
2021/05/10 03:45:40;;;;;;;15.93;10.18;;;7.60;72.80;;;;;;6247629;22;20109;-94
2021/05/10 03:48:09;;;;;;;17.58;10.65;;;7.70;72.50;;;;;;6247477;22;20027;-93
2021/05/10 03:50:34;;;;;;;16.50;10.63;;;7.80;72.30;;;;;;6247624;22;20003;-93
2021/05/10 03:53:00;;;;;;;17.45;11.07;;;7.90;72.10;;;;;;6248547;22;20004;-94
2021/05/10 03:55:26;;;;;;;15.70;10.93;;;8.10;72.10;;;;;;6247213;22;20047;-94
2021/05/10 03:57:53;;;;;;;15.65;11.52;;;8.20;71.70;;;;;;6247381;22;20000;-94
2021/05/10 04:00:19;;;;;;;15.40;10.85;;;8.30;71.60;;;;;;6246940;22;20412;-94
2021/05/10 04:02:45;;;;;;;16.55;11.60;;;8.40;71.50;;;;;;6247068;22;20004;-94
2021/05/10 04:05:33;;;;;;;16.70;11.23;;;8.50;71.40;;;;;;6247399;22;20004;-94
2021/05/10 04:08:11;;;;;;;16.63;11.15;;;8.60;71.30;;;;;;6247743;23;20362;-94
2021/05/10 04:10:57;;;;;;;15.35;10.55;;;8.70;71.10;;;;;;6247380;23;19992;-94
2021/05/10 04:13:36;;;;;;;12.15;9.07;;;8.90;70.90;;;;;;6248551;22;20008;-94
2021/05/10 04:16:03;;;;;;;11.70;9.27;;;9.00;70.80;;;;;;6247893;23;20180;-94
2021/05/10 04:18:29;;;;;;;14.13;7.75;;;9.10;70.60;;;;;;6247046;22;20004;-94
2021/05/10 04:20:55;;;;;;;12.10;8.07;;;9.20;70.50;;;;;;6248262;22;20000;-94
2021/05/10 04:23:21;;;;;;;10.02;7.15;;;9.40;70.60;;;;;;6247347;22;20403;-93
2021/05/10 04:25:48;;;;;;;12.30;8.13;;;9.50;70.50;;;;;;6247731;22;20415;-94
2021/05/10 04:28:15;;;;;;;9.00;7.03;;;9.70;70.80;;;;;;6247364;22;20004;-94
2021/05/10 04:30:42;;;;;;;11.27;8.18;;;9.70;70.30;;;;;;6247260;22;20004;-94
2021/05/10 04:33:07;;;;;;;10.35;7.82;;;9.90;70.60;;;;;;6247004;22;20050;-93
2021/05/10 04:35:33;;;;;;;12.68;7.03;;;10.00;70.40;;;;;;6247243;22;20023;-94
2021/05/10 04:38:02;;;;;;;7.47;5.85;;;10.10;70.20;;;;;;6262997;22;20004;-93
2021/05/10 04:40:27;;;;;;;9.23;6.53;;;10.30;70.00;;;;;;6274425;22;19992;-91
2021/05/10 04:42:53;;;;;;;8.68;6.20;;;10.40;69.80;;;;;;6274600;22;20019;-94
2021/05/10 04:45:19;;;;;;;8.27;5.78;;;10.60;69.60;;;;;;6273876;22;20015;-95
2021/05/10 04:47:46;;;;;;;12.90;7.15;;;10.70;69.20;;;;;;6263385;22;20055;-93
2021/05/10 04:50:13;;;;;;;9.23;7.22;;;10.90;69.00;;;;;;6254120;22;20000;-94
2021/05/10 04:52:39;;;;;;;9.63;6.85;;;11.00;68.70;;;;;;6255062;22;20004;-94
2021/05/10 04:55:07;;;;;;;8.13;6.07;;;11.20;68.40;;;;;;6255226;22;19997;-94
2021/05/10 04:57:33;;;;;;;10.20;7.40;;;11.30;68.10;;;;;;6250282;23;20000;-94
2021/05/10 04:59:59;;;;;;;7.78;5.68;;;11.40;67.70;;;;;;6247175;22;20012;-94
2021/05/10 05:02:25;;;;;;;6.88;5.38;;;11.50;66.90;;;;;;6247540;22;20023;-93
2021/05/10 05:04:51;;;;;;;8.27;5.10;;;11.60;66.40;;;;;;6248270;22;20007;-93
2021/05/10 05:07:17;;;;;;;7.70;5.20;;;11.80;66.10;;;;;;6248154;22;20079;-93
2021/05/10 05:09:43;;;;;;;6.90;5.07;;;11.90;65.70;;;;;;6249479;22;20008;-93
2021/05/10 05:12:09;;;;;;;7.00;5.03;;;12.10;65.50;;;;;;6249436;22;20010;-93
2021/05/10 05:14:35;;;;;;;6.28;4.88;;;12.20;65.00;;;;;;6247906;22;19996;-94
2021/05/10 05:17:03;;;;;;;4.78;4.03;;;12.30;64.20;;;;;;6248941;22;20005;-94
2021/05/10 05:19:29;;;;;;;4.88;4.05;;;12.40;63.50;;;;;;6253534;22;20004;-93
2021/05/10 05:21:55;;;;;;;6.70;4.68;;;12.60;62.80;;;;;;6246609;22;20106;-94
2021/05/10 05:24:21;;;;;;;5.22;4.13;;;12.70;62.20;;;;;;6247167;22;20008;-94
2021/05/10 05:26:47;;;;;;;5.68;3.88;;;12.90;61.40;;;;;;6246437;22;20031;-94
2021/05/10 05:29:14;;;;;;;4.95;3.92;;;13.00;60.70;;;;;;6246667;22;20083;-93
2021/05/10 05:31:40;;;;;;;5.47;4.75;;;13.10;59.80;;;;;;6248157;22;20062;-94
2021/05/10 05:34:06;;;;;;;4.82;3.50;;;13.20;59.30;;;;;;6248309;22;20342;-91
2021/05/10 05:36:32;;;;;;;5.97;3.75;;;13.30;58.70;;;;;;6247481;22;20083;-91
2021/05/10 05:38:58;;;;;;;4.47;3.53;;;13.40;58.00;;;;;;6249987;23;20008;-92
2021/05/10 05:41:23;;;;;;;5.68;3.72;;;13.50;57.30;;;;;;6253462;22;20001;-93
2021/05/10 05:43:49;;;;;;;3.20;2.50;;;13.60;56.20;;;;;;6255905;22;20039;-93
2021/05/10 05:46:19;;;;;;;3.72;2.47;;;13.60;55.00;;;;;;6256154;22;19996;-93
2021/05/10 05:48:45;;;;;;;2.35;2.15;;;13.70;54.00;;;;;;6256653;23;20172;-94
2021/05/10 05:51:11;;;;;;;4.72;3.35;;;13.70;52.40;;;;;;6248817;22;20000;-94
2021/05/10 05:53:38;;;;;;;4.78;3.60;;;13.80;52.10;;;;;;6250334;22;20039;-94
2021/05/10 05:56:04;;;;;;;4.65;3.35;;;13.90;51.60;;;;;;6248602;22;20087;-94
2021/05/10 05:58:30;;;;;;;4.90;3.05;;;13.90;51.00;;;;;;6248720;22;20020;-93
2021/05/10 06:00:57;;;;;;;5.20;2.83;;;14.00;51.30;;;;;;6248221;22;20048;-94
2021/05/10 06:03:23;;;;;;;3.72;2.85;;;14.00;51.30;;;;;;6248254;22;20093;-94
2021/05/10 06:05:49;;;;;;;2.95;2.65;;;14.20;51.20;;;;;;6248234;22;20046;-93
2021/05/10 06:08:16;;;;;;;3.97;2.75;;;14.20;51.20;;;;;;6248793;22;20083;-93
2021/05/10 06:10:42;;;;;;;3.40;2.92;;;14.40;51.40;;;;;;6250590;22;20007;-93
2021/05/10 06:13:11;;;;;;;4.93;3.65;;;14.50;51.40;;;;;;6248272;22;20050;-92
2021/05/10 06:15:37;;;;;;;5.35;3.65;;;14.60;51.00;;;;;;6249176;22;20058;-94
2021/05/10 06:18:06;;;;;;;5.68;3.70;;;14.70;50.80;;;;;;6248498;22;20004;-93
2021/05/10 06:20:32;;;;;;;5.43;3.90;;;14.80;49.90;;;;;;6248934;22;19996;-91
2021/05/10 06:22:58;;;;;;;4.90;3.40;;;14.80;49.40;;;;;;6248143;22;20011;-93
2021/05/10 06:25:23;;;;;;;4.13;2.63;;;14.90;49.30;;;;;;6248702;22;20015;-91
2021/05/10 06:27:50;;;;;;;7.35;3.05;;;14.90;48.50;;;;;;6248155;22;20042;-92
2021/05/10 06:30:16;;;;;;;3.50;2.70;;;14.90;47.20;;;;;;6249277;22;20478;-91
2021/05/10 06:32:43;;;;;;;3.60;2.65;;;14.90;48.00;;;;;;6249032;22;20008;-91
2021/05/10 06:35:10;;;;;;;2.60;2.40;;;15.00;47.40;;;;;;6248655;22;20000;-92
2021/05/10 06:37:36;;;;;;;5.78;2.50;;;15.10;47.00;;;;;;6255228;23;19997;-92
2021/05/10 06:40:02;;;;;;;3.10;2.30;;;15.20;46.90;;;;;;6267697;22;19988;-91
2021/05/10 06:42:28;;;;;;;2.95;2.40;;;15.30;46.30;;;;;;6272193;22;20019;-89
2021/05/10 06:44:55;;;;;;;4.85;2.05;;;15.40;44.90;;;;;;6270356;22;20012;-90
2021/05/10 06:47:21;;;;;;;2.75;2.42;;;15.30;43.00;;;;;;6272293;22;19996;-89
2021/05/10 06:49:47;;;;;;;2.25;2.03;;;15.30;43.90;;;;;;6272243;22;20034;-90
2021/05/10 06:52:12;;;;;;;4.72;2.50;;;15.30;43.30;;;;;;6258785;22;20004;-91
2021/05/10 06:54:38;;;;;;;2.90;2.00;;;15.30;43.50;;;;;;6252854;22;19996;-92
2021/05/10 06:57:04;;;;;;;3.28;2.35;;;15.30;43.60;;;;;;6249506;22;20008;-92
2021/05/10 06:59:30;;;;;;;3.38;2.42;;;15.30;42.40;;;;;;6249935;22;20044;-92
2021/05/10 07:01:55;;;;;;;2.38;1.92;;;15.30;42.70;;;;;;6251238;23;20016;-91
2021/05/10 07:04:21;;;;;;;2.30;1.90;;;15.30;41.90;;;;;;6248252;22;20435;-92
2021/05/10 07:06:47;;;;;;;3.03;2.33;;;15.30;41.80;;;;;;6248832;22;20031;-91
2021/05/10 07:09:12;;;;;;;1.90;1.70;;;15.40;41.40;;;;;;6248163;22;20015;-91
2021/05/10 07:11:38;;;;;;;3.15;1.48;;;15.40;40.40;;;;;;6247993;22;20014;-90
2021/05/10 07:14:05;;;;;;;5.63;1.77;;;15.40;40.50;;;;;;6249127;22;20099;-91
2021/05/10 07:16:31;;;;;;;3.72;2.10;;;15.40;39.60;;;;;;6248245;22;20044;-92
2021/05/10 07:18:57;;;;;;;2.00;1.67;;;15.40;39.40;;;;;;6250904;22;20007;-92
2021/05/10 07:21:23;;;;;;;2.13;1.80;;;15.50;39.80;;;;;;6259198;22;20008;-91
2021/05/10 07:23:50;;;;;;;2.25;1.60;;;15.50;39.20;;;;;;6261261;22;20010;-91
2021/05/10 07:26:16;;;;;;;1.98;1.70;;;15.50;39.50;;;;;;6259070;22;20012;-92
2021/05/10 07:28:42;;;;;;;3.25;1.50;;;15.50;39.10;;;;;;6248826;22;20007;-92
2021/05/10 07:31:08;;;;;;;3.17;1.65;;;15.60;39.50;;;;;;6247928;22;20087;-91
2021/05/10 07:33:34;;;;;;;3.30;2.03;;;15.70;39.10;;;;;;6251186;22;20004;-90
2021/05/10 07:36:03;;;;;;;4.88;2.03;;;15.80;38.50;;;;;;6250535;22;20006;-92
2021/05/10 07:38:29;;;;;;;2.60;2.20;;;15.80;38.40;;;;;;6249007;22;20439;-92
2021/05/10 07:40:55;;;;;;;6.63;3.03;;;15.80;38.70;;;;;;6247674;22;19996;-91
2021/05/10 07:43:21;;;;;;;2.95;2.00;;;15.90;38.80;;;;;;6247717;22;20019;-92
2021/05/10 07:45:46;;;;;;;4.00;2.67;;;15.90;39.20;;;;;;6247763;22;20020;-91
2021/05/10 07:48:12;;;;;;;6.82;2.95;;;16.00;39.20;;;;;;6247624;22;20334;-91
2021/05/10 07:50:38;;;;;;;4.38;3.30;;;16.10;39.00;;;;;;6247530;22;20007;-91
2021/05/10 07:53:03;;;;;;;4.15;2.90;;;16.20;38.40;;;;;;6247570;22;20087;-92
2021/05/10 07:55:29;;;;;;;3.97;2.33;;;16.30;38.60;;;;;;6247513;22;20005;-91
2021/05/10 07:57:55;;;;;;;1.83;1.70;;;16.20;37.20;;;;;;6247498;22;20546;-93
2021/05/10 08:00:34;;;;;;;4.43;2.30;;;16.30;37.30;;;;;;6249392;22;20008;-92
2021/05/10 08:03:15;;;;;;;3.10;2.03;;;16.20;36.90;;;;;;6247352;23;20057;-92
2021/05/10 08:05:43;;;;;;;2.25;2.00;;;16.20;37.50;;;;;;6247359;23;20028;-92
2021/05/10 08:08:10;;;;;;;1.65;1.52;;;16.20;38.00;;;;;;6247307;22;20054;-92
2021/05/10 08:10:36;;;;;;;2.28;2.03;;;16.20;37.00;;;;;;6247514;22;20000;-92
2021/05/10 08:13:01;;;;;;;2.60;2.40;;;16.30;37.20;;;;;;6247348;22;20015;-92
2021/05/10 08:15:27;;;;;;;2.35;2.15;;;16.20;36.30;;;;;;6247349;22;20004;-92
2021/05/10 08:17:53;;;;;;;3.08;2.47;;;16.10;36.40;;;;;;6247433;22;20007;-92
2021/05/10 08:20:19;;;;;;;2.65;2.25;;;16.10;35.90;;;;;;6247064;22;20007;-92
2021/05/10 08:22:44;;;;;;;3.10;2.40;;;16.10;36.30;;;;;;6246217;23;20062;-91
2021/05/10 08:25:12;;;;;;;3.45;2.10;;;16.10;36.50;;;;;;6247022;22;20007;-93
2021/05/10 08:27:39;;;;;;;2.92;2.05;;;16.10;36.30;;;;;;6247422;22;20004;-92
2021/05/10 08:30:07;;;;;;;2.97;2.05;;;16.20;36.80;;;;;;6247754;22;20004;-92
2021/05/10 08:32:32;;;;;;;2.75;2.42;;;16.30;36.40;;;;;;6247276;22;20008;-92
2021/05/10 08:34:58;;;;;;;2.97;2.55;;;16.30;36.30;;;;;;6247191;22;20000;-91
2021/05/10 08:37:24;;;;;;;3.38;2.45;;;16.40;35.40;;;;;;6247012;22;20039;-92
2021/05/10 08:39:50;;;;;;;3.45;2.42;;;16.30;35.40;;;;;;6249228;22;20064;-92
2021/05/10 08:42:17;;;;;;;3.47;2.38;;;16.30;36.20;;;;;;6247263;22;20011;-91
2021/05/10 08:44:43;;;;;;;2.65;1.85;;;16.40;36.20;;;;;;6247617;22;20024;-91
2021/05/10 08:47:08;;;;;;;4.10;2.40;;;16.50;35.90;;;;;;6247391;22;20000;-91
2021/05/10 08:49:34;;;;;;;2.00;1.75;;;16.50;35.60;;;;;;6251468;22;20000;-91
2021/05/10 08:52:00;;;;;;;2.13;1.73;;;16.50;34.80;;;;;;6264529;22;20000;-92
2021/05/10 08:54:27;;;;;;;2.00;1.80;;;16.40;34.60;;;;;;6267829;22;20004;-91
2021/05/10 08:56:54;;;;;;;2.60;1.90;;;16.40;34.80;;;;;;6267911;22;20056;-92
2021/05/10 08:59:20;;;;;;;2.10;1.90;;;16.40;34.80;;;;;;6264024;22;20004;-91
2021/05/10 09:01:53;;;;;;;2.83;2.30;;;16.30;34.50;;;;;;6263244;23;20138;-93
2021/05/10 09:04:33;;;;;;;2.40;2.05;;;16.30;34.60;;;;;;6251675;23;20432;-92
2021/05/10 09:07:18;;;;;;;3.03;2.20;;;16.30;34.00;;;;;;6252743;23;20087;-93
2021/05/10 09:09:49;;;;;;;3.35;1.80;;;16.40;34.50;;;;;;6255567;22;20010;-92
2021/05/10 09:12:17;;;;;;;2.70;1.60;;;16.40;35.10;;;;;;6252600;22;20008;-91
2021/05/10 09:14:43;;;;;;;2.05;1.83;;;16.50;34.50;;;;;;6248810;22;20175;-93
2021/05/10 09:17:10;;;;;;;2.17;1.98;;;16.50;34.60;;;;;;6248321;22;20008;-92
2021/05/10 09:19:56;;;;;;;4.45;2.30;;;16.50;34.40;;;;;;6248887;22;19997;-92
2021/05/10 09:22:22;;;;;;;1.58;1.48;;;16.50;33.00;;;;;;6245920;23;20423;-93
2021/05/10 09:24:51;;;;;;;2.58;1.70;;;16.50;34.50;;;;;;6246854;22;20020;-92
2021/05/10 09:27:30;;;;;;;1.92;1.70;;;16.50;34.60;;;;;;6246710;22;20000;-92
2021/05/10 09:30:15;;;;;;;1.83;1.73;;;16.50;34.00;;;;;;6246902;23;20007;-92
2021/05/10 09:32:52;;;;;;;2.15;1.85;;;16.60;34.40;;;;;;6246738;22;20008;-92
2021/05/10 09:35:27;;;;;;;2.22;1.90;;;16.60;34.40;;;;;;6248226;23;19997;-92
2021/05/10 09:38:06;;;;;;;1.77;1.63;;;16.70;33.80;;;;;;6247929;23;20015;-94
2021/05/10 09:40:47;;;;;;;4.45;2.15;;;16.70;34.20;;;;;;6247338;22;20004;-94
2021/05/10 09:43:18;;;;;;;2.33;1.90;;;16.70;32.80;;;;;;6247019;23;20008;-93
2021/05/10 09:45:47;;;;;;;1.88;1.65;;;16.70;33.80;;;;;;6247411;23;20066;-93
2021/05/10 09:48:19;;;;;;;1.98;1.70;;;16.70;34.10;;;;;;6247629;22;20434;-93
2021/05/10 09:50:53;;;;;;;1.65;1.50;;;16.80;34.00;;;;;;6248549;22;20411;-93
2021/05/10 09:53:27;;;;;;;3.50;2.05;;;16.80;33.80;;;;;;6247546;22;20419;-93
2021/05/10 09:55:54;;;;;;;2.70;2.13;;;16.90;34.00;;;;;;6247646;23;20383;-93
2021/05/10 09:58:23;;;;;;;2.28;1.75;;;16.90;33.20;;;;;;6246843;23;20005;-90
2021/05/10 10:00:54;;;;;;;2.30;2.08;;;16.90;33.00;;;;;;6246874;22;20020;-90
2021/05/10 10:03:40;;;;;;;1.98;1.73;;;16.90;33.10;;;;;;6247066;22;20005;-90
2021/05/10 10:06:11;;;;;;;2.10;1.90;;;16.90;33.20;;;;;;6246900;23;20019;-92
2021/05/10 10:08:39;;;;;;;3.53;2.15;;;16.90;33.80;;;;;;6247948;23;20011;-91
2021/05/10 10:11:08;;;;;;;2.47;1.80;;;16.90;32.70;;;;;;6246481;22;20001;-91
2021/05/10 10:13:34;;;;;;;2.33;1.92;;;16.80;33.10;;;;;;6246686;22;20008;-92
2021/05/10 10:16:03;;;;;;;1.85;1.75;;;16.90;33.50;;;;;;6245889;22;20011;-92
2021/05/10 10:18:39;;;;;;;1.60;1.50;;;16.90;33.20;;;;;;6246500;22;20027;-93
2021/05/10 10:21:07;;;;;;;3.33;2.10;;;17.00;33.70;;;;;;6245405;23;20011;-93
2021/05/10 10:23:42;;;;;;;2.00;1.90;;;17.00;33.20;;;;;;6245721;22;20427;-92
2021/05/10 10:26:14;;;;;;;1.92;1.83;;;16.90;32.80;;;;;;6246625;23;20012;-92
2021/05/10 10:28:45;;;;;;;4.47;2.33;;;16.90;32.90;;;;;;6245867;22;20012;-92
2021/05/10 10:31:33;;;;;;;2.17;1.98;;;17.00;33.00;;;;;;6241671;22;20004;-92
2021/05/10 10:34:13;;;;;;;3.30;2.33;;;17.00;31.70;;;;;;6222201;23;20054;-91
2021/05/10 10:37:01;;;;;;;1.88;1.77;;;17.10;32.60;;;;;;6240249;22;20004;-93
2021/05/10 10:39:33;;;;;;;2.70;1.50;;;17.10;32.50;;;;;;6247889;23;20018;-92
2021/05/10 10:42:45;;;;;;;;;;;;;;;;;;;;;
2021/05/10 10:45:29;;;;;;;3.80;1.65;;;17.20;31.50;;;;;;6248665;23;20495;-92
2021/05/10 10:48:12;;;;;;;2.20;2.00;;;17.20;31.80;;;;;;6248946;23;20328;-91
2021/05/10 10:51:07;;;;;;;2.65;1.90;;;17.20;32.10;;;;;;6223108;23;20004;-93
2021/05/10 10:53:49;;;;;;;2.13;1.80;;;17.30;30.90;;;;;;6247776;23;20008;-91
2021/05/10 10:56:16;;;;;;;3.38;2.08;;;17.30;31.20;;;;;;6248529;23;20034;-93
2021/05/10 10:58:51;;;;;;;2.05;1.85;;;17.30;31.40;;;;;;6249626;22;19993;-94
2021/05/10 11:01:23;;;;;;;2.78;2.00;;;17.20;31.60;;;;;;6248046;23;20024;-92
2021/05/10 11:03:54;;;;;;;2.22;2.03;;;17.20;32.10;;;;;;6227413;22;20012;-92
2021/05/10 11:06:49;;;;;;;1.92;1.83;;;17.20;31.70;;;;;;6252754;23;20023;-93
2021/05/10 11:09:50;;;;;;;2.65;1.83;;;17.20;30.90;;;;;;6268143;22;20012;-93
2021/05/10 11:12:55;;;;;;;1.67;1.58;;;17.20;30.60;;;;;;6261641;22;20006;-92
2021/05/10 11:15:42;;;;;;;2.03;1.80;;;17.20;30.20;;;;;;6265594;22;19989;-94
2021/05/10 11:18:55;;;;;;;2.80;1.95;;;17.20;30.90;;;;;;6266632;23;20027;-92
2021/05/10 11:21:25;;;;;;;2.03;1.58;;;17.30;30.50;;;;;;6261663;22;20004;-93
2021/05/10 11:24:05;;;;;;;5.05;2.20;;;17.40;31.40;;;;;;6254826;22;20020;-92
2021/05/10 11:26:51;;;;;;;1.95;1.77;;;17.50;30.30;;;;;;6250818;22;20039;-93
2021/05/10 11:29:42;;;;;;;2.33;2.10;;;17.50;30.60;;;;;;6228126;23;20099;-92
2021/05/10 11:32:33;;;;;;;1.67;1.58;;;17.50;30.50;;;;;;6252552;23;20031;-92
2021/05/10 11:35:25;;;;;;;1.67;1.55;;;17.60;31.10;;;;;;6211859;22;20008;-94
2021/05/10 11:38:04;;;;;;;1.80;1.70;;;17.60;30.90;;;;;;6253004;22;20012;-92
2021/05/10 11:40:59;;;;;;;2.70;1.85;;;17.60;30.70;;;;;;6245971;23;20008;-91
2021/05/10 11:43:30;;;;;;;;;;;17.60;30.00;;;;;;6250222;22;20415;-92
2021/05/10 11:46:04;;;;;;;2.28;1.85;;;17.60;31.40;;;;;;6252113;23;19964;-91
2021/05/10 11:48:43;;;;;;;1.75;1.65;;;17.70;31.00;;;;;;6251204;23;20093;-92
2021/05/10 11:51:28;;;;;;;2.42;2.13;;;17.70;30.80;;;;;;6240529;23;20420;-93
2021/05/10 11:54:08;;;;;;;2.47;1.60;;;17.70;30.80;;;;;;6248948;23;20095;-93
2021/05/10 11:56:44;;;;;;;2.05;1.55;;;17.80;30.80;;;;;;6250557;22;20087;-92
2021/05/10 11:59:38;;;;;;;3.15;1.98;;;17.80;30.40;;;;;;6250490;22;20000;-91
2021/05/10 12:02:27;;;;;;;1.50;1.35;;;17.80;30.00;;;;;;6249717;23;20584;-92
2021/05/10 12:05:04;;;;;;;2.47;1.70;;;17.90;29.90;;;;;;6222570;23;20655;-93
2021/05/10 12:07:55;;;;;;;4.35;2.13;;;18.10;30.00;;;;;;6250645;23;20004;-92
2021/05/10 12:10:27;;;;;;;2.58;1.90;;;18.10;29.70;;;;;;6252934;22;20008;-92
2021/05/10 12:13:02;;;;;;;2.10;1.90;;;18.20;29.80;;;;;;6248796;23;20080;-91
2021/05/10 12:15:30;;;;;;;2.13;1.65;;;18.40;29.40;;;;;;6249131;23;20087;-91
2021/05/10 12:18:21;;;;;;;1.98;1.77;;;18.50;29.20;;;;;;6249755;22;20000;-91
2021/05/10 12:20:53;;;;;;;2.88;1.80;;;18.80;29.30;;;;;;6249226;23;20008;-92
2021/05/10 12:23:34;;;;;;;2.60;2.10;;;19.10;29.50;;;;;;6249072;23;20039;-94
2021/05/10 12:26:34;;;;;;;2.10;1.92;;;19.50;29.60;;;;;;6248630;23;20062;-92
2021/05/10 12:29:03;;;;;;;1.80;1.70;;;19.90;29.10;;;;;;6158211;23;20396;-93
2021/05/10 12:31:48;;;;;;;1.77;1.67;;;20.20;29.10;;;;;;6132390;23;20341;-92
2021/05/10 12:34:17;;;;;;;2.28;2.10;;;20.70;28.70;;;;;;6247906;23;20431;-93
2021/05/10 12:36:51;;;;;;;3.13;2.10;;;20.80;27.80;;;;;;6248017;22;20034;-92
2021/05/10 12:39:17;;;;;;;1.70;1.60;;;21.00;27.40;;;;;;6247620;23;20351;-93
2021/05/10 12:41:51;;;;;;;1.70;1.42;;;21.10;27.50;;;;;;6249439;22;20086;-92
2021/05/10 12:44:33;;;;;;;1.92;1.70;;;21.30;27.50;;;;;;6224674;23;20010;-92
2021/05/10 12:47:02;;;;;;;1.70;1.60;;;21.40;26.60;;;;;;6246809;23;20012;-91
2021/05/10 12:49:31;;;;;;;1.80;1.58;;;21.50;27.70;;;;;;6245644;23;20442;-93
2021/05/10 12:55:28;;;;;;;2.00;1.80;;;22.30;26.30;;;;;;6248069;23;20481;-93
2021/05/10 13:01:37;;;;;;;2.28;2.08;;;23.00;25.30;;;;;;6249022;22;20023;-92
2021/05/10 13:04:15;;;;;;;2.33;2.00;;;23.00;26.00;;;;;;6249886;22;20044;-93
2021/05/10 13:06:57;;;;;;;1.98;1.73;;;23.10;26.50;;;;;;6251704;22;20012;-92
2021/05/10 13:09:29;;;;;;;2.33;1.98;;;23.20;26.10;;;;;;6252901;22;20320;-91